createdAt,value
2022-10-17T00:00:55.999Z,4.10
2022-10-17T00:03:23.096Z,4.15
2022-10-17T00:05:50.283Z,3.80
2022-10-17T00:08:19.167Z,4.28
2022-10-17T00:10:54.976Z,3.50
2022-10-17T00:13:22.202Z,3.53
2022-10-17T00:15:49.516Z,4.07
2022-10-17T00:18:16.582Z,3.67
2022-10-17T00:20:43.702Z,4.15
2022-10-17T00:23:10.885Z,4.00
2022-10-17T00:25:38.042Z,3.85
2022-10-17T00:28:05.300Z,3.22
2022-10-17T00:30:32.954Z,2.80
2022-10-17T00:33:00.110Z,3.38
2022-10-17T00:35:27.346Z,3.10
2022-10-17T00:37:54.540Z,2.85
2022-10-17T00:40:22.909Z,3.03
2022-10-17T00:42:53.029Z,3.45
2022-10-17T00:45:29.884Z,3.42
2022-10-17T00:50:33.080Z,2.80
2022-10-17T00:53:02.896Z,3.28
2022-10-17T00:55:34.973Z,3.25
2022-10-17T00:58:04.852Z,2.97
2022-10-17T01:00:32.452Z,3.33
2022-10-17T01:03:00.056Z,3.90
2022-10-17T01:05:27.229Z,3.30
2022-10-17T01:07:56.400Z,3.40
2022-10-17T01:10:58.954Z,2.55
2022-10-17T01:13:30.182Z,2.85
2022-10-17T01:16:16.625Z,2.75
2022-10-17T01:19:05.012Z,3.22
2022-10-17T01:21:47.553Z,2.22
2022-10-17T01:27:10.457Z,2.25
2022-10-17T01:30:11.305Z,3.08
2022-10-17T01:32:57.524Z,2.17
2022-10-17T01:35:42.465Z,2.60
2022-10-17T01:38:14.767Z,2.58
2022-10-17T01:40:55.631Z,2.30
2022-10-17T01:43:34.278Z,3.10
2022-10-17T01:46:22.293Z,2.95
2022-10-17T01:48:49.455Z,3.08
2022-10-17T01:51:26.722Z,3.42
2022-10-17T01:54:12.405Z,3.20
2022-10-17T01:56:42.091Z,2.20
2022-10-17T01:59:18.002Z,2.70
2022-10-17T02:01:50.160Z,2.88
2022-10-17T02:04:17.522Z,3.05
2022-10-17T02:06:44.765Z,2.80
2022-10-17T02:09:19.546Z,2.95
2022-10-17T02:12:11.412Z,2.28
2022-10-17T02:17:28.183Z,2.58
2022-10-17T02:20:15.808Z,3.50
2022-10-17T02:22:51.795Z,2.70
2022-10-17T02:25:37.540Z,2.05
2022-10-17T02:28:19.895Z,2.75
2022-10-17T02:30:47.004Z,2.63
2022-10-17T02:33:16.665Z,2.20
2022-10-17T02:35:48.633Z,2.72
2022-10-17T02:38:17.227Z,2.63
2022-10-17T02:40:45.891Z,2.78
2022-10-17T02:43:14.464Z,2.78
2022-10-17T02:45:42.250Z,2.80
2022-10-17T02:48:37.369Z,2.55
2022-10-17T02:51:10.387Z,2.13
2022-10-17T02:54:09.605Z,2.80
2022-10-17T02:56:48.924Z,2.03
2022-10-17T02:59:20.229Z,2.67
2022-10-17T03:01:48.254Z,2.58
2022-10-17T03:04:15.426Z,1.77
2022-10-17T03:06:43.569Z,2.10
2022-10-17T03:09:10.963Z,2.38
2022-10-17T03:11:38.558Z,2.20
2022-10-17T03:14:07.653Z,2.28
2022-10-17T03:16:34.788Z,2.25
2022-10-17T03:19:01.987Z,1.95
2022-10-17T03:21:29.398Z,1.63
2022-10-17T03:23:57.096Z,2.33
2022-10-17T03:26:24.434Z,2.08
2022-10-17T03:28:53.674Z,2.15
2022-10-17T03:31:22.801Z,1.95
2022-10-17T03:33:51.158Z,2.20
2022-10-17T03:36:19.556Z,2.22
2022-10-17T03:38:48.214Z,1.88
2022-10-17T03:41:17.232Z,1.85
2022-10-17T03:43:44.356Z,2.80
2022-10-17T03:46:11.466Z,1.90
2022-10-17T03:48:38.698Z,2.85
2022-10-17T03:51:09.478Z,2.20
2022-10-17T03:53:45.318Z,2.60
2022-10-17T03:56:19.466Z,2.20
2022-10-17T03:58:55.783Z,2.03
2022-10-17T04:01:23.512Z,1.85
2022-10-17T04:03:52.376Z,2.00
2022-10-17T04:06:20.853Z,2.30
2022-10-17T04:08:49.031Z,2.10
2022-10-17T04:11:22.421Z,2.85
2022-10-17T04:13:55.134Z,2.45
2022-10-17T04:16:24.028Z,2.30
2022-10-17T04:19:00.024Z,2.05
2022-10-17T04:21:30.797Z,2.00
2022-10-17T04:24:02.615Z,2.70
2022-10-17T04:26:58.877Z,2.10
2022-10-17T04:29:29.101Z,2.42
2022-10-17T04:32:06.498Z,2.67
2022-10-17T04:34:50.032Z,1.80
2022-10-17T04:37:18.356Z,2.05
2022-10-17T04:39:46.880Z,2.90
2022-10-17T04:42:13.941Z,2.88
2022-10-17T04:44:41.383Z,1.90
2022-10-17T04:47:09.089Z,2.08
2022-10-17T04:49:36.486Z,2.92
2022-10-17T04:52:10.111Z,2.10
2022-10-17T04:54:43.876Z,2.85
2022-10-17T04:57:13.469Z,2.85
2022-10-17T04:59:42.733Z,2.15
2022-10-17T05:02:19.028Z,2.05
2022-10-17T05:04:46.937Z,2.67
2022-10-17T05:07:15.278Z,2.80
2022-10-17T05:10:17.813Z,2.55
2022-10-17T05:12:48.431Z,1.90
2022-10-17T05:15:17.421Z,2.53
2022-10-17T05:17:44.550Z,2.10
2022-10-17T05:20:12.321Z,2.55
2022-10-17T05:22:42.116Z,2.38
2022-10-17T05:25:10.632Z,2.58
2022-10-17T05:27:38.301Z,2.60
2022-10-17T05:30:06.320Z,2.85
2022-10-17T05:32:36.251Z,2.78
2022-10-17T05:35:04.448Z,2.58
2022-10-17T05:37:32.746Z,2.85
2022-10-17T05:40:01.409Z,2.72
2022-10-17T05:42:29.674Z,2.05
2022-10-17T05:44:58.478Z,2.92
2022-10-17T05:47:26.872Z,2.95
2022-10-17T05:49:54.212Z,2.05
2022-10-17T05:52:27.352Z,2.45
2022-10-17T05:55:11.244Z,2.13
2022-10-17T05:57:39.417Z,2.95
2022-10-17T06:00:11.268Z,3.05
2022-10-17T06:02:49.172Z,2.20
2022-10-17T06:05:18.849Z,2.35
2022-10-17T06:07:46.753Z,2.70
2022-10-17T06:10:16.519Z,2.83
2022-10-17T06:12:44.819Z,2.80
2022-10-17T06:15:13.074Z,2.30
2022-10-17T06:17:43.174Z,1.98
2022-10-17T06:20:10.507Z,1.58
2022-10-17T06:22:37.851Z,1.75
2022-10-17T06:27:37.213Z,1.42
2022-10-17T06:30:05.196Z,1.30
2022-10-17T06:32:32.658Z,1.02
2022-10-17T06:34:59.947Z,1.23
2022-10-17T06:37:35.322Z,1.30
2022-10-17T06:40:09.005Z,1.73
2022-10-17T06:42:37.146Z,1.63
2022-10-17T06:45:24.802Z,1.85
2022-10-17T06:47:57.308Z,1.05
2022-10-17T06:50:40.582Z,1.20
2022-10-17T06:53:14.177Z,1.17
2022-10-17T06:55:54.125Z,1.15
2022-10-17T06:58:54.721Z,1.52
2022-10-17T07:01:30.682Z,1.38
2022-10-17T07:04:00.127Z,1.70
2022-10-17T07:06:28.749Z,1.23
2022-10-17T07:08:57.807Z,0.88
2022-10-17T07:11:25.880Z,1.45
2022-10-17T07:13:53.121Z,1.13
2022-10-17T07:16:22.317Z,1.75
2022-10-17T07:18:56.842Z,1.33
2022-10-17T07:21:25.148Z,1.65
2022-10-17T07:23:52.468Z,1.40
2022-10-17T07:26:20.682Z,1.00
2022-10-17T07:28:53.053Z,1.30
2022-10-17T07:31:30.607Z,1.42
2022-10-17T07:34:00.338Z,1.48
2022-10-17T07:36:28.068Z,1.38
2022-10-17T07:38:56.587Z,1.73
2022-10-17T07:41:25.131Z,1.45
2022-10-17T07:43:52.316Z,1.98
2022-10-17T07:46:23.204Z,1.73
2022-10-17T07:48:51.001Z,1.15
2022-10-17T07:51:21.983Z,1.48
2022-10-17T07:53:49.498Z,1.30
2022-10-17T07:56:16.964Z,1.25
2022-10-17T07:58:44.149Z,1.40
2022-10-17T08:01:15.536Z,2.08
2022-10-17T08:03:50.950Z,1.40
2022-10-17T08:06:18.563Z,2.45
2022-10-17T08:08:45.662Z,1.88
2022-10-17T08:11:14.423Z,1.58
2022-10-17T08:13:42.216Z,1.25
2022-10-17T08:16:12.456Z,1.42
2022-10-17T08:18:41.083Z,1.70
2022-10-17T08:21:09.302Z,2.08
2022-10-17T08:23:37.541Z,1.85
2022-10-17T08:26:08.263Z,1.30
2022-10-17T08:28:37.125Z,1.95
2022-10-17T08:31:12.069Z,1.58
2022-10-17T08:33:39.723Z,1.67
2022-10-17T08:36:08.651Z,1.80
2022-10-17T08:38:38.358Z,1.42
2022-10-17T08:41:33.924Z,1.70
2022-10-17T08:44:15.741Z,2.30
2022-10-17T08:46:47.107Z,1.85
2022-10-17T08:49:26.180Z,1.75
2022-10-17T08:52:06.571Z,1.60
2022-10-17T08:54:43.037Z,1.75
2022-10-17T08:57:14.112Z,2.55
2022-10-17T08:59:42.129Z,2.00
2022-10-17T09:02:33.237Z,1.95
2022-10-17T09:05:33.296Z,1.92
2022-10-17T09:08:11.177Z,1.95
2022-10-17T09:11:11.326Z,1.88
2022-10-17T09:14:12.525Z,2.45
2022-10-17T09:17:32.926Z,2.00
2022-10-17T09:20:24.705Z,2.50
2022-10-17T09:23:03.815Z,1.80
2022-10-17T09:25:40.502Z,2.15
2022-10-17T09:28:10.440Z,2.13
2022-10-17T09:31:08.193Z,2.63
2022-10-17T09:33:54.014Z,2.10
2022-10-17T09:36:35.561Z,2.88
2022-10-17T09:39:16.820Z,3.40
2022-10-17T09:41:50.022Z,2.78
2022-10-17T09:44:23.081Z,3.47
2022-10-17T09:47:09.135Z,3.03
2022-10-17T09:49:38.992Z,2.90
2022-10-17T09:52:17.950Z,2.17
2022-10-17T09:55:16.320Z,3.22
2022-10-17T09:58:01.052Z,2.72
2022-10-17T10:00:35.141Z,3.38
2022-10-17T10:03:22.606Z,3.30
2022-10-17T10:06:13.986Z,3.55
2022-10-17T10:08:54.773Z,3.25
2022-10-17T10:11:44.126Z,3.22
2022-10-17T10:14:18.312Z,3.80
2022-10-17T10:16:47.445Z,2.78
2022-10-17T10:19:32.719Z,2.78
2022-10-17T10:22:23.633Z,2.75
2022-10-17T10:25:16.412Z,3.20
2022-10-17T10:27:47.584Z,3.53
2022-10-17T10:30:28.819Z,3.38
2022-10-17T10:32:58.536Z,3.20
2022-10-17T10:35:35.719Z,3.53
2022-10-17T10:38:09.442Z,3.58
2022-10-17T10:40:47.328Z,3.35
2022-10-17T10:43:34.960Z,3.45
2022-10-17T10:46:06.493Z,2.70
2022-10-17T10:48:37.352Z,2.90
2022-10-17T10:51:17.491Z,3.63
2022-10-17T10:54:03.795Z,3.42
2022-10-17T10:56:41.693Z,4.25
2022-10-17T10:59:08.713Z,3.03
2022-10-17T11:01:48.443Z,3.25
2022-10-17T11:04:55.992Z,3.85
2022-10-17T11:07:39.001Z,4.75
2022-10-17T11:10:19.187Z,3.30
2022-10-17T11:13:03.724Z,4.13
2022-10-17T11:15:37.063Z,2.95
2022-10-17T11:18:06.664Z,3.40
2022-10-17T11:20:57.760Z,3.08
2022-10-17T11:23:48.757Z,3.45
2022-10-17T11:26:29.747Z,2.55
2022-10-17T11:28:58.968Z,3.45
2022-10-17T11:31:31.760Z,3.58
2022-10-17T11:34:07.473Z,3.08
2022-10-17T11:36:41.995Z,2.80
2022-10-17T11:39:29.530Z,3.17
2022-10-17T11:42:13.064Z,2.75
2022-10-17T11:44:42.031Z,2.90
2022-10-17T11:47:45.741Z,3.15
2022-10-17T11:53:27.444Z,3.35
2022-10-17T11:55:58.035Z,3.28
2022-10-17T11:58:34.437Z,2.65
2022-10-17T12:01:08.387Z,3.38
2022-10-17T12:04:03.651Z,2.40
2022-10-17T12:06:52.386Z,2.90
2022-10-17T12:09:34.489Z,2.58
2022-10-17T12:12:03.856Z,2.47
2022-10-17T12:14:34.045Z,3.03
2022-10-17T12:17:02.718Z,2.72
2022-10-17T12:19:37.860Z,3.00
2022-10-17T12:22:21.813Z,3.45
2022-10-17T12:25:00.857Z,2.58
2022-10-17T12:27:48.303Z,2.80
2022-10-17T12:30:21.671Z,2.60
2022-10-17T12:33:21.969Z,2.78
2022-10-17T12:35:51.281Z,2.67
2022-10-17T12:38:18.432Z,3.10
2022-10-17T12:40:49.017Z,2.20
2022-10-17T12:43:16.368Z,3.53
2022-10-17T12:45:54.523Z,3.00
2022-10-17T12:48:36.817Z,2.00
2022-10-17T12:51:34.202Z,3.58
2022-10-17T12:54:12.242Z,2.33
2022-10-17T12:56:48.016Z,2.40
2022-10-17T12:59:22.337Z,2.13
2022-10-17T13:01:56.460Z,2.10
2022-10-17T13:04:24.304Z,3.15
2022-10-17T13:06:57.186Z,2.58
2022-10-17T13:09:30.408Z,2.72
2022-10-17T13:12:00.623Z,2.30
2022-10-17T13:14:28.584Z,4.00
2022-10-17T13:16:59.843Z,2.33
2022-10-17T13:19:31.508Z,3.05
2022-10-17T13:22:07.042Z,2.88
2022-10-17T13:24:37.292Z,3.42
2022-10-17T13:27:06.685Z,2.53
2022-10-17T13:29:34.227Z,2.15
2022-10-17T13:32:05.496Z,2.83
2022-10-17T13:34:33.917Z,2.47
2022-10-17T13:37:04.519Z,2.22
2022-10-17T13:39:58.302Z,2.35
2022-10-17T13:42:30.659Z,2.63
2022-10-17T13:44:59.228Z,2.67
2022-10-17T13:47:30.704Z,2.42
2022-10-17T13:49:59.339Z,2.83
2022-10-17T13:52:29.225Z,2.92
2022-10-17T13:55:16.869Z,2.88
2022-10-17T13:57:45.081Z,2.65
2022-10-17T14:00:20.449Z,2.80
2022-10-17T14:02:48.446Z,3.58
2022-10-17T14:05:19.428Z,2.42
2022-10-17T14:10:38.865Z,2.47
2022-10-17T14:13:14.802Z,2.63
2022-10-17T14:15:46.670Z,2.22
2022-10-17T14:18:34.813Z,2.55
2022-10-17T14:24:12.006Z,2.80
2022-10-17T14:26:48.872Z,2.60
2022-10-17T14:29:24.240Z,2.50
2022-10-17T14:32:16.471Z,2.42
2022-10-17T14:34:43.855Z,2.47
2022-10-17T14:37:31.474Z,2.38
2022-10-17T14:40:04.777Z,2.97
2022-10-17T14:42:32.308Z,2.53
2022-10-17T14:45:08.241Z,2.00
2022-10-17T14:47:43.574Z,2.95
2022-10-17T14:50:11.131Z,3.20
2022-10-17T14:52:39.123Z,2.75
2022-10-17T14:55:28.234Z,2.22
2022-10-17T14:57:55.356Z,1.90
2022-10-17T15:00:24.113Z,3.20
2022-10-17T15:02:53.371Z,2.10
2022-10-17T15:05:21.061Z,2.20
2022-10-17T15:07:48.196Z,2.17
2022-10-17T15:10:28.428Z,1.92
2022-10-17T15:12:59.145Z,1.92
2022-10-17T15:15:33.082Z,2.92
2022-10-17T15:18:00.461Z,3.22
2022-10-17T15:20:30.293Z,2.10
2022-10-17T15:22:59.673Z,2.55
2022-10-17T15:25:28.064Z,1.98
2022-10-17T15:27:55.751Z,2.45
2022-10-17T15:30:24.155Z,2.08
2022-10-17T15:32:52.020Z,1.92
2022-10-17T15:35:19.911Z,2.17
2022-10-17T15:37:47.256Z,2.38
2022-10-17T15:40:18.471Z,2.47
2022-10-17T15:42:45.581Z,2.47
2022-10-17T15:45:17.196Z,2.35
2022-10-17T15:47:50.305Z,2.08
2022-10-17T15:50:18.272Z,2.75
2022-10-17T15:52:47.099Z,2.53
2022-10-17T15:55:14.311Z,1.83
2022-10-17T15:57:43.314Z,2.85
2022-10-17T16:00:23.035Z,1.73
2022-10-17T16:02:51.126Z,1.42
2022-10-17T16:05:23.455Z,1.48
2022-10-17T16:07:51.024Z,1.77
2022-10-17T16:10:18.873Z,1.88
2022-10-17T16:12:49.724Z,1.75
2022-10-17T16:15:25.324Z,2.05
2022-10-17T16:17:54.424Z,1.60
2022-10-17T16:20:22.335Z,1.42
2022-10-17T16:22:50.097Z,1.52
2022-10-17T16:25:20.058Z,1.85
2022-10-17T16:27:49.110Z,1.02
2022-10-17T16:30:17.103Z,1.80
2022-10-17T16:32:44.346Z,0.88
2022-10-17T16:35:23.761Z,1.60
2022-10-17T16:37:51.336Z,1.63
2022-10-17T16:40:18.982Z,1.50
2022-10-17T16:42:46.479Z,1.17
2022-10-17T16:45:23.522Z,1.27
2022-10-17T16:47:50.811Z,1.40
2022-10-17T16:50:18.593Z,2.08
2022-10-17T16:52:45.783Z,1.58
2022-10-17T16:55:13.016Z,1.90
2022-10-17T16:57:40.182Z,2.55
2022-10-17T17:00:08.078Z,1.58
2022-10-17T17:02:35.309Z,1.55
2022-10-17T17:05:02.463Z,1.63
2022-10-17T17:07:29.987Z,2.22
2022-10-17T17:09:57.578Z,1.30
2022-10-17T17:12:24.737Z,1.42
2022-10-17T17:14:51.888Z,1.50
2022-10-17T17:17:30.474Z,2.03
2022-10-17T17:20:05.025Z,3.00
2022-10-17T17:22:32.231Z,2.08
2022-10-17T17:24:59.312Z,2.45
2022-10-17T17:27:28.895Z,2.50
2022-10-17T17:29:56.276Z,2.10
2022-10-17T17:32:23.489Z,2.08
2022-10-17T17:34:50.720Z,3.63
2022-10-17T17:37:18.042Z,2.65
2022-10-17T17:39:45.235Z,2.97
2022-10-17T17:42:12.471Z,2.55
2022-10-17T17:44:39.676Z,2.60
2022-10-17T17:47:06.744Z,2.85
2022-10-17T17:49:33.857Z,2.40
2022-10-17T17:52:00.887Z,2.05
2022-10-17T17:54:28.056Z,2.97
2022-10-17T17:56:55.576Z,3.25
2022-10-17T17:59:22.886Z,2.63
2022-10-17T18:01:50.378Z,3.95
2022-10-17T18:04:17.600Z,4.80
2022-10-17T18:06:45.015Z,6.38
2022-10-17T18:09:12.201Z,5.53
2022-10-17T18:11:39.595Z,4.20
2022-10-17T18:14:11.229Z,3.90
2022-10-17T18:16:38.654Z,4.13
2022-10-17T18:19:09.177Z,3.85
2022-10-17T18:21:37.211Z,3.90
2022-10-17T18:24:04.964Z,3.10
2022-10-17T18:26:32.671Z,2.70
2022-10-17T18:28:59.816Z,2.58
2022-10-17T18:31:35.869Z,3.58
2022-10-17T18:34:04.759Z,2.35
2022-10-17T18:36:33.075Z,2.65
2022-10-17T18:39:01.145Z,2.88
2022-10-17T18:41:28.949Z,2.78
2022-10-17T18:43:57.387Z,4.05
2022-10-17T18:46:30.191Z,2.85
2022-10-17T18:48:57.664Z,3.30
2022-10-17T18:51:25.857Z,2.78
2022-10-17T18:53:55.533Z,2.50
2022-10-17T18:56:23.054Z,2.97
2022-10-17T18:58:50.455Z,2.55
2022-10-17T19:01:23.010Z,2.30
2022-10-17T19:03:52.142Z,2.67
2022-10-17T19:06:21.965Z,2.33
2022-10-17T19:08:49.708Z,4.00
2022-10-17T19:11:23.400Z,3.30
2022-10-17T19:13:51.523Z,3.35
2022-10-17T19:16:21.642Z,3.30
2022-10-17T19:18:54.251Z,3.58
2022-10-17T19:21:22.415Z,4.05
2022-10-17T19:23:51.808Z,3.00
2022-10-17T19:26:19.475Z,3.47
2022-10-17T19:28:47.753Z,3.70
2022-10-17T19:31:17.943Z,3.17
2022-10-17T19:33:45.991Z,2.97
2022-10-17T19:36:13.899Z,4.00
2022-10-17T19:38:41.174Z,2.58
2022-10-17T19:41:10.212Z,3.58
2022-10-17T19:43:39.150Z,3.88
2022-10-17T19:46:15.474Z,2.80
2022-10-17T19:48:42.796Z,4.00
2022-10-17T19:51:14.260Z,3.05
2022-10-17T19:53:42.994Z,3.00
2022-10-17T19:56:11.708Z,4.55
2022-10-17T19:58:46.571Z,3.90
2022-10-17T20:01:20.735Z,4.43
2022-10-17T20:03:48.530Z,3.63
2022-10-17T20:06:16.523Z,3.08
2022-10-17T20:08:44.337Z,3.47
2022-10-17T20:11:23.058Z,4.05
2022-10-17T20:13:50.993Z,3.47
2022-10-17T20:16:22.569Z,3.30
2022-10-17T20:18:51.008Z,2.20
2022-10-17T20:21:21.660Z,2.67
2022-10-17T20:23:49.139Z,2.45
2022-10-17T20:26:33.209Z,3.28
2022-10-17T20:29:05.661Z,3.03
2022-10-17T20:31:33.138Z,3.13
2022-10-17T20:34:00.806Z,2.40
2022-10-17T20:36:28.102Z,3.05
2022-10-17T20:38:56.986Z,3.20
2022-10-17T20:41:24.841Z,4.40
2022-10-17T20:43:53.358Z,5.65
2022-10-17T20:46:35.878Z,5.85
2022-10-17T20:49:05.822Z,5.45
2022-10-17T20:51:33.679Z,4.22
2022-10-17T20:54:02.797Z,3.40
2022-10-17T20:56:31.651Z,3.35
2022-10-17T20:59:01.559Z,3.17
2022-10-17T21:01:30.866Z,4.40
2022-10-17T21:04:06.090Z,4.85
2022-10-17T21:06:43.236Z,5.90
2022-10-17T21:09:10.504Z,5.72
2022-10-17T21:11:37.579Z,5.47
2022-10-17T21:14:06.672Z,3.70
2022-10-17T21:16:36.100Z,3.28
2022-10-17T21:19:04.473Z,3.38
2022-10-17T21:21:37.038Z,3.03
2022-10-17T21:24:10.539Z,2.83
2022-10-17T21:26:38.385Z,3.25
2022-10-17T21:29:07.094Z,2.97
2022-10-17T21:31:38.899Z,3.45
2022-10-17T21:34:18.426Z,3.40
2022-10-17T21:36:45.815Z,3.67
2022-10-17T21:39:14.034Z,3.58
2022-10-17T21:41:42.302Z,3.53
2022-10-17T21:44:15.298Z,3.17
2022-10-17T21:46:43.303Z,3.03
2022-10-17T21:49:12.950Z,2.60
2022-10-17T21:51:40.414Z,3.13
2022-10-17T21:54:08.069Z,3.08
2022-10-17T21:56:39.180Z,3.35
2022-10-17T21:59:10.523Z,2.85
2022-10-17T22:01:43.685Z,2.93
2022-10-17T22:04:14.889Z,2.60
2022-10-17T22:06:43.914Z,2.55
2022-10-17T22:09:31.892Z,3.20
2022-10-17T22:11:59.026Z,2.80
2022-10-17T22:14:27.661Z,3.05
2022-10-17T22:16:55.137Z,3.05
2022-10-17T22:19:26.546Z,2.55
2022-10-17T22:21:55.342Z,2.03
2022-10-17T22:24:23.505Z,3.55
2022-10-17T22:26:51.578Z,2.13
2022-10-17T22:29:18.799Z,2.60
2022-10-17T22:31:46.183Z,2.55
2022-10-17T22:34:15.117Z,2.63
2022-10-17T22:36:42.717Z,3.22
2022-10-17T22:39:10.772Z,3.78
2022-10-17T22:41:37.945Z,3.35
2022-10-17T22:44:05.339Z,3.60
2022-10-17T22:46:32.824Z,3.55
2022-10-17T22:49:00.170Z,3.20
2022-10-17T22:51:27.393Z,3.30
2022-10-17T22:53:54.795Z,2.80
2022-10-17T22:56:22.912Z,3.00
2022-10-17T22:58:50.816Z,2.05
2022-10-17T23:01:23.501Z,3.45
2022-10-17T23:03:52.529Z,3.03
2022-10-17T23:06:20.554Z,2.85
2022-10-17T23:08:47.805Z,2.72
2022-10-17T23:11:14.957Z,3.08
2022-10-17T23:13:42.168Z,2.95
2022-10-17T23:16:09.623Z,2.22
2022-10-17T23:18:38.252Z,2.15
2022-10-17T23:21:05.968Z,2.65
2022-10-17T23:23:33.130Z,1.58
2022-10-17T23:26:08.566Z,1.90
2022-10-17T23:28:36.159Z,2.15
2022-10-17T23:31:29.715Z,1.60
2022-10-17T23:33:56.961Z,1.80
2022-10-17T23:36:24.118Z,2.35
2022-10-17T23:38:53.724Z,1.50
2022-10-17T23:43:51.317Z,2.15
2022-10-17T23:46:18.652Z,1.73
2022-10-17T23:48:45.804Z,2.00
2022-10-17T23:51:13.357Z,1.55
2022-10-17T23:53:40.872Z,2.90
2022-10-17T23:56:09.437Z,3.00
2022-10-17T23:58:37.476Z,1.92
